Aérodrome :
LOGIN :

S'inscrire | Disclaimer

   EN    FR    IT 

 










Légende :    VFR   VFR Marginal   IFR   IFR Intensif   IFR Très Intensif
Visi : 
Plafond : 
>= 8 km
>= 3000ft
5 à 8 km
1000 à 3000 ft
1500m à 5 km
500 à 1000 ft
800 à 1500m
200 à 500 ft
< 800m
< 200 ft
Symboles :   Orages  Brouillard  Fortes neiges  Fortes précipitations  Vent > 20 kt
SIGMETs :   Divers  Orages  Givrage  Turbulence  Onde Orograph.  Cendres Volcan.






- Altitude de l'aérodrome : 464 ft
- Code IATA : EVX


LFOE - Evreux

DERNIER METAR :
  • 140100Z AUTO 22011KT 9999 FEW013 BKN030 BKN044 06/04 Q0992

METARs EXPIRÉS :
  • 140030Z AUTO /////KT 9999 -RA BKN011 OVC016 06/05 Q0991
  • 140000Z AUTO 17016KT 9999 BKN012 OVC018 06/05 Q0991 TEMPO 4000 RA BECMG 20010G20KT BKN008
  • 132330Z AUTO 16019KT 9999 BKN012 BKN019 BKN024 06/05 Q0992 TEMPO 4000 RA BECMG 20010G20KT BKN008
  • 132300Z AUTO 16017KT 8000 -RA BKN014/// OVC020/// ///TCU 06/05 Q0992
  • 132230Z AUTO 16018KT 9999 -RA OVC014/// ///TCU 06/04 Q0993

TAF AMD TAF LFOE
Valide du 13 à 23h jusqu'au 14 à 21h UTC


132000Z 1323/1421 18015G25KT 7000 -RA BKN015
TEMPO 1323/1401 16020G30KT 4000 RA BKN008 OVC015
BECMG 1401/1402 20010G20KT 9999 NSW BKN008
BECMG 1410/1413 SCT020
BECMG 1414/1416 17010KT
BECMG 1418/1421 10005KT



MET'MAP, la Météo Aéronautique d'un coup d'oeil ! - Copyright ORBIFLY Décembre 2007 - Disclaimer

ORBIFLY MET'MAP TEAM :

Programmation & Développement : Alexandra Zaïnal
Conception & Développement : Baudouin d'Aumeries
Co-Programmation & Développement : Marc-Olivier Méhu
Soutien technique & logistique : Manuel Goepfert

Contact : metmap@orbifly.com




SOURCES & CREDITS :

   NOAA